createdAt,value
2018-12-27T00:59:51.665Z,-2.20
2018-12-27T01:41:06.774Z,-2.50
2018-12-27T01:43:47.409Z,-2.50
2018-12-27T01:46:28.007Z,-2.40
2018-12-27T01:52:20.926Z,-2.50
2018-12-27T01:55:01.876Z,-2.50
2018-12-27T02:00:55.432Z,-2.60
2018-12-27T02:03:35.981Z,-2.60
2018-12-27T02:06:16.800Z,-2.60
2018-12-27T02:08:57.258Z,-2.60
2018-12-27T02:14:36.286Z,-2.50
2018-12-27T02:17:17.107Z,-2.60
2018-12-27T02:19:57.782Z,-2.60
2018-12-27T02:25:50.774Z,-2.60
2018-12-27T02:28:29.537Z,-2.50
2018-12-27T02:31:17.438Z,-2.50
2018-12-27T02:33:56.836Z,-2.50
2018-12-27T02:36:44.738Z,-2.50
2018-12-27T02:39:32.613Z,-2.70
2018-12-27T02:42:20.582Z,-2.90
2018-12-27T02:45:08.464Z,-2.90
2018-12-27T02:47:56.355Z,-2.80
2018-12-27T02:50:44.234Z,-2.90
2018-12-27T02:59:07.146Z,-3.20
2018-12-27T03:01:55.019Z,-3.20
2018-12-27T03:04:42.911Z,-3.10
2018-12-27T03:07:30.797Z,-3.10
2018-12-27T03:24:16.043Z,-3.20
2018-12-27T03:29:51.391Z,-3.00
2018-12-27T03:32:39.264Z,-3.10
2018-12-27T03:41:02.173Z,-2.80
2018-12-27T03:43:50.051Z,-2.70
2018-12-27T03:55:00.465Z,-3.10
2018-12-27T03:57:48.357Z,-3.20
2018-12-27T04:00:36.241Z,-3.20
2018-12-27T04:06:11.665Z,-3.00
2018-12-27T04:11:47.090Z,-3.00
2018-12-27T04:14:34.999Z,-2.90
2018-12-27T04:28:34.490Z,-2.80
2018-12-27T04:31:22.464Z,-2.90
2018-12-27T04:34:09.505Z,-3.10
2018-12-27T04:42:42.900Z,-3.00
2018-12-27T04:45:23.745Z,-2.90
2018-12-27T04:47:52.227Z,-2.80
2018-12-27T05:01:49.929Z,-3.20
2018-12-27T05:07:25.284Z,-3.20
2018-12-27T05:10:13.101Z,-3.20
2018-12-27T05:13:00.974Z,-3.10
2018-12-27T05:15:48.777Z,-2.90
2018-12-27T05:18:36.568Z,-2.80
2018-12-27T05:21:24.383Z,-2.80
2018-12-27T05:24:12.176Z,-2.90
2018-12-27T05:27:00.003Z,-2.90
2018-12-27T05:29:47.860Z,-2.90
2018-12-27T05:35:16.123Z,-2.60
2018-12-27T05:37:54.886Z,-2.60
2018-12-27T05:40:42.680Z,-2.80
2018-12-27T05:46:18.025Z,-2.90
2018-12-27T05:49:05.940Z,-3.10
2018-12-27T05:51:53.752Z,-3.20
2018-12-27T05:54:41.588Z,-3.20
2018-12-27T06:00:16.968Z,-2.90
2018-12-27T06:03:04.778Z,-3.00
2018-12-27T06:05:52.596Z,-3.10
2018-12-27T06:08:40.464Z,-5.50
2018-12-27T06:11:28.279Z,-3.10
2018-12-27T06:14:16.082Z,-3.00
2018-12-27T06:17:03.893Z,-2.90
2018-12-27T06:19:51.764Z,-2.90
2018-12-27T06:22:39.565Z,-3.00
2018-12-27T06:25:27.372Z,-3.20
2018-12-27T06:28:15.167Z,-3.20
2018-12-27T06:33:41.414Z,-3.40
2018-12-27T06:39:16.709Z,-3.40
2018-12-27T06:42:04.517Z,-3.20
2018-12-27T06:44:52.399Z,-3.30
2018-12-27T06:47:40.189Z,-3.20
2018-12-27T06:53:15.463Z,-3.10
2018-12-27T06:56:03.273Z,-3.00
2018-12-27T07:04:26.013Z,-3.20
2018-12-27T07:10:01.290Z,-3.20
2018-12-27T07:15:36.584Z,-3.00
2018-12-27T07:18:24.402Z,-2.90
2018-12-27T07:21:12.261Z,-2.90
2018-12-27T07:24:00.081Z,-3.00
2018-12-27T07:29:35.459Z,-3.00
2018-12-27T07:32:23.246Z,-3.00
2018-12-27T07:35:03.934Z,-3.10
2018-12-27T07:37:44.629Z,-3.10
2018-12-27T07:43:24.205Z,-3.50
2018-12-27T07:46:10.892Z,-3.30
2018-12-27T07:57:56.838Z,-3.20
2018-12-27T08:00:37.710Z,-3.20
2018-12-27T08:09:28.844Z,-2.90
2018-12-27T08:21:21.884Z,-3.10
2018-12-27T08:38:53.798Z,-2.70
2018-12-27T08:44:47.076Z,-2.30
2018-12-27T08:59:35.300Z,-2.30
2018-12-27T09:05:18.833Z,-2.20
2018-12-27T09:10:55.618Z,-2.30
2018-12-27T09:13:36.202Z,-2.20
2018-12-27T09:19:29.932Z,-2.20
2018-12-27T09:22:10.494Z,-2.10
2018-12-27T09:24:50.802Z,-2.00
2018-12-27T09:27:31.316Z,-2.20
2018-12-27T09:30:12.274Z,-2.30
2018-12-27T09:36:05.897Z,-2.20
2018-12-27T09:41:58.822Z,-2.20
2018-12-27T09:44:39.278Z,-1.30
2018-12-27T09:47:20.028Z,-2.30
2018-12-27T09:53:13.625Z,-5.30
2018-12-27T09:55:54.290Z,-1.80
2018-12-27T09:58:34.762Z,-1.80
2018-12-27T10:01:15.786Z,-1.30
2018-12-27T10:03:56.734Z,-1.50
2018-12-27T10:06:37.816Z,-1.40
2018-12-27T10:09:18.710Z,-1.10
2018-12-27T10:11:59.238Z,-1.10
2018-12-27T10:14:47.136Z,-1.10
2018-12-27T10:20:22.461Z,-1.30
2018-12-27T10:23:11.987Z,-1.30
2018-12-27T10:25:59.885Z,-1.30
2018-12-27T10:28:47.800Z,-1.00
2018-12-27T10:31:35.729Z,-1.00
2018-12-27T10:34:16.069Z,-0.90
2018-12-27T10:39:56.153Z,-1.00
2018-12-27T10:45:35.563Z,-0.70
2018-12-27T10:56:50.400Z,-0.20
2018-12-27T11:21:58.152Z,0.40
2018-12-27T11:24:46.020Z,0.40
2018-12-27T11:27:33.816Z,0.40
2018-12-27T11:30:21.647Z,0.40
2018-12-27T11:33:09.502Z,0.50
2018-12-27T11:38:48.555Z,0.60
2018-12-27T11:41:29.175Z,0.50
2018-12-27T11:44:09.570Z,0.50
2018-12-27T11:46:50.037Z,0.50
2018-12-27T11:49:30.703Z,0.60
2018-12-27T11:52:11.370Z,0.60
2018-12-27T11:54:51.959Z,0.70
2018-12-27T11:57:32.814Z,0.70
2018-12-27T12:00:13.586Z,0.70
2018-12-27T12:02:54.230Z,0.70
2018-12-27T12:05:35.058Z,0.80
2018-12-27T12:08:15.546Z,0.80
2018-12-27T12:10:56.128Z,0.90
2018-12-27T12:13:36.622Z,1.00
2018-12-27T12:16:17.227Z,1.50
2018-12-27T12:18:57.920Z,1.10
2018-12-27T12:21:38.412Z,1.30
2018-12-27T12:24:19.201Z,1.20
2018-12-27T12:26:59.689Z,1.30
2018-12-27T12:29:40.249Z,1.40
2018-12-27T12:32:20.808Z,2.10
2018-12-27T12:35:01.754Z,2.80
2018-12-27T12:37:42.601Z,3.00
2018-12-27T12:40:23.607Z,3.50
2018-12-27T12:43:04.032Z,3.50
2018-12-27T12:45:44.613Z,3.90
2018-12-27T12:48:25.095Z,3.90
2018-12-27T12:51:05.670Z,4.10
2018-12-27T12:53:46.135Z,4.00
2018-12-27T12:56:26.627Z,4.30
2018-12-27T12:59:07.429Z,4.60
2018-12-27T13:01:48.021Z,4.60
2018-12-27T13:04:28.894Z,4.70
2018-12-27T13:07:09.583Z,4.50
2018-12-27T13:09:50.369Z,4.70
2018-12-27T13:12:30.917Z,5.10
2018-12-27T13:21:09.429Z,4.70
2018-12-27T13:23:50.311Z,4.60
2018-12-27T13:26:30.867Z,5.50
2018-12-27T13:35:22.960Z,6.00
2018-12-27T13:38:03.555Z,6.40
2018-12-27T13:40:44.458Z,6.90
2018-12-27T13:43:25.357Z,6.90
2018-12-27T13:46:05.929Z,7.20
2018-12-27T13:48:46.998Z,5.50
2018-12-27T13:54:26.956Z,5.40
2018-12-27T13:57:07.463Z,7.10
2018-12-27T13:59:47.911Z,4.70
2018-12-27T14:02:30.238Z,4.60
2018-12-27T14:05:11.334Z,4.30
2018-12-27T14:11:05.030Z,3.90
2018-12-27T14:19:43.027Z,3.30
2018-12-27T14:22:24.023Z,3.20
2018-12-27T14:25:04.754Z,3.00
2018-12-27T14:27:45.218Z,2.90
2018-12-27T14:30:25.796Z,2.80
2018-12-27T14:33:06.922Z,2.70
2018-12-27T14:35:47.246Z,2.60
2018-12-27T14:38:28.124Z,2.50
2018-12-27T14:41:08.714Z,2.40
2018-12-27T14:43:49.608Z,2.30
2018-12-27T14:46:28.462Z,2.30
2018-12-27T14:49:16.346Z,2.30
2018-12-27T14:52:04.139Z,2.30
2018-12-27T15:00:26.980Z,1.90
2018-12-27T15:03:14.761Z,1.70
2018-12-27T15:06:02.614Z,1.50
2018-12-27T15:08:52.875Z,1.10
2018-12-27T16:04:04.166Z,0.20
2018-12-27T16:42:21.643Z,0.30
2018-12-27T17:59:23.372Z,-0.60
2018-12-27T20:13:02.633Z,-1.40
2018-12-27T20:45:41.119Z,-1.30
2018-12-27T21:35:55.375Z,-1.70
2018-12-27T21:38:36.527Z,-1.20
2018-12-27T22:05:05.676Z,-1.10
2018-12-27T22:28:49.101Z,-1.40
2018-12-27T22:54:59.757Z,-1.70
2018-12-27T23:03:50.979Z,-1.80
2018-12-27T23:18:27.833Z,-1.40
2018-12-27T23:21:08.347Z,-1.70
